Detroit, Michigan
Traffic Map
Current Weather Conditions
Detroit, Michigan
Broken Clouds
Broken Clouds
57°
Feels Like: 57°
Wind Chill: 57° Ceiling: 3700
Heat Index: 57° Visibility: 15mi
Dew Point: 45° Wind: 8mph
Humidity: 63% Direction: 240° (WSW)
Pressure: 29.98in Gusts: 0mph
Raw Report DataCYQG 242300Z 24007KT 15SM BKN037 14/07 A2998 RMK SC7 SLP156
Traffic Incident Summary
Active as of:
Severity:
Category:
InformationThere was an issue retrieving the traffic information for this location. Please try a different location or try again shortly.
Advertisements
Track Severe Weather on mobile